createdAt,value
2022-10-30T00:07:38.581Z,20.20
2022-10-30T00:19:39.071Z,21.10
2022-10-30T00:31:39.517Z,19.60
2022-10-30T00:43:39.945Z,22.30
2022-10-30T00:55:40.423Z,19.10
2022-10-30T01:07:40.879Z,17.60
2022-10-30T01:19:41.327Z,21.70
2022-10-30T01:31:41.764Z,21.30
2022-10-30T01:43:42.228Z,20.10
2022-10-30T01:55:42.693Z,18.80
2022-10-30T02:07:43.140Z,17.00
2022-10-30T02:19:43.577Z,17.70
2022-10-30T02:31:44.534Z,17.60
2022-10-30T02:43:44.529Z,16.60
2022-10-30T02:55:44.931Z,16.70
2022-10-30T03:07:45.377Z,15.30
2022-10-30T03:19:45.837Z,15.30
2022-10-30T03:31:46.307Z,21.80
2022-10-30T03:43:46.752Z,19.00
2022-10-30T03:55:47.215Z,17.00
2022-10-30T04:07:47.653Z,16.20
2022-10-30T04:19:48.135Z,17.10
2022-10-30T04:31:48.553Z,16.30
2022-10-30T04:43:49.032Z,15.60
2022-10-30T04:55:49.481Z,15.60
2022-10-30T05:07:49.957Z,16.70
2022-10-30T05:19:50.331Z,17.10
2022-10-30T05:31:50.792Z,17.20
2022-10-30T05:43:51.269Z,16.60
2022-10-30T05:55:51.727Z,17.10
2022-10-30T06:07:52.182Z,16.60
2022-10-30T06:19:52.646Z,14.30
2022-10-30T06:31:53.220Z,15.60
2022-10-30T06:43:53.564Z,15.40
2022-10-30T06:55:57.852Z,16.90
2022-10-30T07:07:54.451Z,17.20
2022-10-30T07:19:54.899Z,12.90
2022-10-30T07:32:02.909Z,9.50
2022-10-30T07:43:55.813Z,10.30
2022-10-30T07:55:56.277Z,9.60
2022-10-30T08:07:56.980Z,10.60
2022-10-30T08:19:57.311Z,9.50
2022-10-30T08:31:57.626Z,8.10
2022-10-30T08:43:58.099Z,6.90
2022-10-30T08:55:58.544Z,6.50
2022-10-30T09:07:59.369Z,7.40
2022-10-30T09:19:59.429Z,14.60
2022-10-30T09:31:59.885Z,5.70
2022-10-30T09:44:00.349Z,4.70
2022-10-30T09:56:00.812Z,2.70
2022-10-30T10:08:01.770Z,2.90
2022-10-30T10:20:01.702Z,3.30
2022-10-30T10:32:02.175Z,3.10
2022-10-30T10:44:02.666Z,3.30
2022-10-30T10:56:03.089Z,3.10
2022-10-30T11:08:03.527Z,3.40
2022-10-30T11:20:04.010Z,3.70
2022-10-30T11:32:04.492Z,3.90
2022-10-30T11:44:04.917Z,3.40
2022-10-30T11:56:05.377Z,3.40
2022-10-30T12:08:05.837Z,4.30
2022-10-30T12:20:06.301Z,3.60
2022-10-30T12:32:06.724Z,4.50
2022-10-30T12:44:07.197Z,3.90
2022-10-30T12:56:07.625Z,4.30
2022-10-30T13:08:08.118Z,4.80
2022-10-30T13:20:08.588Z,5.00
2022-10-30T13:32:09.036Z,5.60
2022-10-30T13:44:09.460Z,6.50
2022-10-30T13:56:09.959Z,6.00
2022-10-30T14:08:10.380Z,6.60
2022-10-30T14:20:14.314Z,6.90
2022-10-30T14:32:11.293Z,8.30
2022-10-30T14:44:11.756Z,8.10
2022-10-30T14:56:12.263Z,8.90
2022-10-30T15:08:12.720Z,9.20
2022-10-30T15:20:13.072Z,10.70
2022-10-30T15:32:13.563Z,8.40
2022-10-30T15:44:14.088Z,8.70
2022-10-30T15:53:45.111Z,9.30
2022-10-30T16:05:45.547Z,11.70
2022-10-30T16:17:45.998Z,13.90
2022-10-30T16:29:46.426Z,13.90
2022-10-30T16:53:47.399Z,18.20
2022-10-30T17:05:47.804Z,34.20
2022-10-30T17:17:48.247Z,26.30
2022-10-30T17:29:48.701Z,27.40
2022-10-30T17:41:49.201Z,26.10
2022-10-30T17:53:49.643Z,27.90
2022-10-30T18:05:50.085Z,32.10
2022-10-30T18:17:50.507Z,27.40
2022-10-30T18:29:50.970Z,31.90
2022-10-30T18:41:51.395Z,27.30
2022-10-30T18:53:52.320Z,26.30
2022-10-30T19:05:52.339Z,28.60
2022-10-30T19:17:52.810Z,23.80
2022-10-30T19:29:53.253Z,24.50
2022-10-30T19:41:53.677Z,22.90
2022-10-30T19:53:54.255Z,27.60
2022-10-30T20:05:54.589Z,24.90
2022-10-30T20:17:55.062Z,23.30
2022-10-30T20:29:55.517Z,20.90
2022-10-30T20:41:55.921Z,21.80
2022-10-30T20:53:56.397Z,21.50
2022-10-30T21:05:56.882Z,19.30
2022-10-30T21:17:57.625Z,19.50
2022-10-30T21:29:57.758Z,17.10
2022-10-30T21:41:58.218Z,59.70
2022-10-30T21:53:58.697Z,18.40
2022-10-30T22:05:59.133Z,21.10
2022-10-30T22:17:59.718Z,19.80
2022-10-30T22:30:00.036Z,19.10
2022-10-30T22:42:00.505Z,16.90
2022-10-30T22:54:00.908Z,17.10
2022-10-30T23:06:01.385Z,18.60
2022-10-30T23:18:02.197Z,16.10
2022-10-30T23:30:02.303Z,17.30
2022-10-30T23:42:02.748Z,17.40
2022-10-30T23:54:03.186Z,22.90
